createdAt,value
2023-04-16T00:01:10.328Z,9.55
2023-04-16T00:03:38.233Z,9.53
2023-04-16T00:06:06.606Z,9.55
2023-04-16T00:08:35.583Z,9.55
2023-04-16T00:11:03.392Z,9.52
2023-04-16T00:13:31.120Z,9.56
2023-04-16T00:16:00.350Z,9.55
2023-04-16T00:18:28.063Z,9.55
2023-04-16T00:20:55.926Z,9.55
2023-04-16T00:23:25.169Z,9.52
2023-04-16T00:25:53.617Z,9.52
2023-04-16T00:28:21.348Z,9.51
2023-04-16T00:30:49.145Z,9.51
2023-04-16T00:33:18.291Z,9.53
2023-04-16T00:35:46.565Z,9.51
2023-04-16T00:38:15.124Z,9.51
2023-04-16T00:40:43.023Z,9.52
2023-04-16T00:43:10.873Z,9.55
2023-04-16T00:45:39.565Z,9.56
2023-04-16T00:48:07.436Z,9.57
2023-04-16T00:50:36.651Z,9.56
2023-04-16T00:53:04.434Z,9.53
2023-04-16T00:55:32.398Z,9.53
2023-04-16T00:58:00.630Z,9.52
2023-04-16T01:00:28.410Z,9.50
2023-04-16T01:02:56.926Z,9.49
2023-04-16T01:05:24.778Z,9.50
2023-04-16T01:07:53.891Z,9.51
2023-04-16T01:10:21.661Z,9.46
2023-04-16T01:12:49.425Z,9.48
2023-04-16T01:15:17.268Z,9.49
2023-04-16T01:17:47.129Z,9.47
2023-04-16T01:20:15.009Z,9.47
2023-04-16T01:22:44.108Z,9.45
2023-04-16T01:25:15.784Z,9.45
2023-04-16T01:27:43.664Z,9.46
2023-04-16T01:30:11.983Z,9.45
2023-04-16T01:32:59.607Z,9.43
2023-04-16T01:35:27.558Z,9.46
2023-04-16T01:37:56.682Z,9.44
2023-04-16T01:40:24.572Z,9.46
2023-04-16T01:42:52.310Z,9.45
2023-04-16T01:45:20.316Z,9.44
2023-04-16T01:47:48.173Z,9.43
2023-04-16T01:50:15.955Z,9.41
2023-04-16T01:52:43.672Z,9.45
2023-04-16T01:55:13.031Z,9.43
2023-04-16T01:57:40.825Z,9.46
2023-04-16T02:00:09.693Z,9.43
2023-04-16T02:02:46.640Z,9.46
2023-04-16T02:05:19.716Z,9.48
2023-04-16T02:07:47.775Z,9.49
2023-04-16T02:10:16.970Z,9.48
2023-04-16T02:12:45.476Z,9.49
2023-04-16T02:15:15.739Z,9.46
2023-04-16T02:17:43.723Z,9.47
2023-04-16T02:20:12.644Z,9.46
2023-04-16T02:22:51.127Z,9.46
2023-04-16T02:25:23.120Z,9.46
2023-04-16T02:27:52.173Z,9.42
2023-04-16T02:30:27.600Z,9.40
2023-04-16T02:32:55.789Z,9.42
2023-04-16T02:35:23.580Z,9.40
2023-04-16T02:37:51.366Z,9.41
2023-04-16T02:40:19.332Z,9.41
2023-04-16T02:42:48.974Z,9.42
2023-04-16T02:45:17.056Z,9.41
2023-04-16T02:47:44.845Z,9.40
2023-04-16T02:50:12.987Z,9.38
2023-04-16T02:52:40.739Z,9.38
2023-04-16T02:55:09.612Z,9.37
2023-04-16T02:57:37.476Z,9.33
2023-04-16T03:00:08.000Z,9.35
2023-04-16T03:02:36.154Z,9.32
2023-04-16T03:05:04.295Z,9.32
2023-04-16T03:07:32.029Z,9.31
2023-04-16T03:10:00.294Z,9.24
2023-04-16T03:12:28.052Z,9.27
2023-04-16T03:14:55.916Z,9.25
2023-04-16T03:17:25.311Z,9.24
2023-04-16T03:19:53.091Z,9.22
2023-04-16T03:22:20.846Z,9.19
2023-04-16T03:24:48.596Z,9.22
2023-04-16T03:27:16.368Z,9.16
2023-04-16T03:29:45.472Z,9.12
2023-04-16T03:32:13.576Z,9.15
2023-04-16T03:34:42.795Z,9.16
2023-04-16T03:37:11.948Z,9.16
2023-04-16T03:39:40.323Z,9.13
2023-04-16T03:42:08.097Z,9.10
2023-04-16T03:44:36.208Z,9.11
2023-04-16T03:47:03.966Z,9.09
2023-04-16T03:49:31.751Z,9.07
2023-04-16T03:52:01.520Z,9.06
2023-04-16T03:54:29.464Z,9.03
2023-04-16T03:57:07.769Z,9.02
2023-04-16T03:59:35.735Z,8.91
2023-04-16T04:02:03.513Z,8.85
2023-04-16T04:04:32.748Z,8.85
2023-04-16T04:07:02.000Z,8.83
2023-04-16T04:09:29.735Z,8.76
2023-04-16T04:11:57.482Z,8.84
2023-04-16T04:14:25.359Z,8.75
2023-04-16T04:16:53.082Z,8.72
2023-04-16T04:19:20.847Z,8.78
2023-04-16T04:21:49.367Z,8.76
2023-04-16T04:24:19.966Z,8.73
2023-04-16T04:26:47.873Z,8.73
2023-04-16T04:29:15.649Z,8.73
2023-04-16T04:31:43.539Z,8.76
2023-04-16T04:34:11.424Z,8.73
2023-04-16T04:36:39.450Z,8.73
2023-04-16T04:39:07.478Z,8.71
2023-04-16T04:41:36.802Z,8.69
2023-04-16T04:44:05.062Z,8.66
2023-04-16T04:46:32.753Z,8.56
2023-04-16T04:49:00.663Z,8.54
2023-04-16T04:51:28.999Z,8.53
2023-04-16T04:53:57.888Z,8.55
2023-04-16T04:56:25.631Z,8.48
2023-04-16T04:58:54.790Z,8.46
2023-04-16T05:01:22.649Z,8.43
2023-04-16T05:03:50.495Z,8.45
2023-04-16T05:06:18.434Z,8.41
2023-04-16T05:08:46.201Z,8.43
2023-04-16T05:11:13.974Z,8.46
2023-04-16T05:13:41.773Z,8.48
2023-04-16T05:16:10.930Z,8.48
2023-04-16T05:18:38.731Z,8.47
2023-04-16T05:21:06.825Z,8.47
2023-04-16T05:23:34.567Z,8.47
2023-04-16T05:26:02.311Z,8.51
2023-04-16T05:28:31.102Z,8.49
2023-04-16T05:30:58.972Z,8.50
2023-04-16T05:33:28.201Z,8.50
2023-04-16T05:35:55.877Z,8.54
2023-04-16T05:38:23.633Z,8.45
2023-04-16T05:40:51.312Z,8.51
2023-04-16T05:43:19.189Z,8.58
2023-04-16T05:45:46.913Z,8.54
2023-04-16T05:48:14.774Z,8.54
2023-04-16T05:50:43.921Z,8.54
2023-04-16T05:53:13.959Z,8.52
2023-04-16T05:55:41.737Z,8.58
2023-04-16T05:58:09.478Z,8.58
2023-04-16T06:00:37.360Z,8.68
2023-04-16T06:03:05.497Z,8.63
2023-04-16T06:05:33.454Z,8.72
2023-04-16T06:08:02.597Z,8.78
2023-04-16T06:10:30.369Z,8.65
2023-04-16T06:12:58.153Z,8.65
2023-04-16T06:15:25.838Z,8.59
2023-04-16T06:17:53.647Z,8.65
2023-04-16T06:20:21.462Z,8.56
2023-04-16T06:22:49.229Z,8.63
2023-04-16T06:25:18.516Z,8.72
2023-04-16T06:27:46.243Z,8.73
2023-04-16T06:30:14.691Z,8.65
2023-04-16T06:32:43.308Z,8.67
2023-04-16T06:35:11.309Z,8.69
2023-04-16T06:37:39.259Z,8.77
2023-04-16T06:40:07.954Z,8.69
2023-04-16T06:42:37.134Z,8.77
2023-04-16T06:45:05.448Z,8.88
2023-04-16T06:47:33.208Z,8.92
2023-04-16T06:50:00.940Z,9.01
2023-04-16T06:52:29.757Z,9.07
2023-04-16T06:54:57.812Z,9.21
2023-04-16T06:57:25.797Z,9.45
2023-04-16T06:59:54.954Z,9.47
2023-04-16T07:02:22.849Z,9.47
2023-04-16T07:04:52.287Z,9.43
2023-04-16T07:07:20.055Z,9.47
2023-04-16T07:09:47.759Z,9.52
2023-04-16T07:12:15.567Z,9.68
2023-04-16T07:14:48.162Z,9.71
2023-04-16T07:17:17.345Z,9.78
2023-04-16T07:19:45.298Z,9.84
2023-04-16T07:22:13.055Z,9.91
2023-04-16T07:24:40.786Z,9.81
2023-04-16T07:27:08.548Z,9.84
2023-04-16T07:29:36.325Z,9.86
2023-04-16T07:32:04.145Z,9.86
2023-04-16T07:34:33.246Z,9.94
2023-04-16T07:37:00.974Z,10.01
2023-04-16T07:39:28.750Z,10.05
2023-04-16T07:41:56.537Z,9.97
2023-04-16T07:44:24.333Z,9.92
2023-04-16T07:46:52.059Z,9.96
2023-04-16T07:49:20.068Z,10.02
2023-04-16T07:51:49.207Z,10.08
2023-04-16T07:54:17.087Z,10.12
2023-04-16T07:56:44.847Z,10.30
2023-04-16T07:59:21.872Z,10.27
2023-04-16T08:01:51.704Z,10.59
2023-04-16T08:04:24.590Z,10.71
2023-04-16T08:06:55.182Z,10.79
2023-04-16T08:09:24.941Z,10.98
2023-04-16T08:11:52.765Z,10.99
2023-04-16T08:14:21.196Z,11.01
2023-04-16T08:16:48.890Z,10.85
2023-04-16T08:19:16.677Z,10.80
2023-04-16T08:21:44.583Z,10.82
2023-04-16T08:24:13.793Z,10.86
2023-04-16T08:26:41.589Z,10.98
2023-04-16T08:29:09.568Z,10.98
2023-04-16T08:31:37.664Z,11.15
2023-04-16T08:34:05.729Z,10.93
2023-04-16T08:36:33.460Z,11.18
2023-04-16T08:39:01.215Z,11.55
2023-04-16T08:41:33.239Z,11.48
2023-04-16T08:44:05.933Z,11.56
2023-04-16T08:46:37.954Z,11.52
2023-04-16T08:49:09.504Z,11.59
2023-04-16T08:51:40.384Z,11.91
2023-04-16T08:54:13.150Z,12.10
2023-04-16T08:56:43.396Z,12.09
2023-04-16T08:59:11.845Z,12.10
2023-04-16T09:01:41.787Z,12.51
2023-04-16T09:04:10.823Z,12.58
2023-04-16T09:06:41.366Z,12.62
2023-04-16T09:09:10.594Z,12.79
2023-04-16T09:11:39.375Z,12.92
2023-04-16T09:14:11.341Z,13.15
2023-04-16T09:16:40.460Z,13.06
2023-04-16T09:19:08.540Z,13.09
2023-04-16T09:21:37.100Z,13.11
2023-04-16T09:24:05.384Z,13.04
2023-04-16T09:26:33.751Z,12.60
2023-04-16T09:29:01.768Z,12.35
2023-04-16T09:31:30.977Z,12.30
2023-04-16T09:34:03.764Z,12.28
2023-04-16T09:36:32.452Z,12.14
2023-04-16T09:39:00.996Z,11.95
2023-04-16T09:41:30.555Z,11.93
2023-04-16T09:43:59.931Z,12.00
2023-04-16T09:46:32.870Z,12.03
2023-04-16T09:49:06.310Z,11.99
2023-04-16T09:51:38.302Z,11.90
2023-04-16T09:54:06.815Z,12.12
2023-04-16T09:56:34.940Z,12.01
2023-04-16T09:59:02.672Z,11.92
2023-04-16T10:01:33.121Z,11.69
2023-04-16T10:04:01.034Z,11.68
2023-04-16T10:06:31.160Z,11.74
2023-04-16T10:08:59.001Z,11.68
2023-04-16T10:11:27.095Z,11.70
2023-04-16T10:13:54.977Z,11.98
2023-04-16T10:16:23.781Z,11.80
2023-04-16T10:18:54.413Z,12.05
2023-04-16T10:21:22.597Z,12.00
2023-04-16T10:23:52.523Z,11.97
2023-04-16T10:26:22.625Z,11.93
2023-04-16T10:28:51.294Z,11.79
2023-04-16T10:31:19.145Z,11.83
2023-04-16T10:33:47.422Z,11.74
2023-04-16T10:36:18.400Z,11.47
2023-04-16T10:38:47.490Z,11.53
2023-04-16T10:41:15.537Z,11.41
2023-04-16T10:43:45.472Z,11.21
2023-04-16T10:46:19.610Z,11.26
2023-04-16T10:48:50.439Z,11.10
2023-04-16T10:51:28.739Z,11.11
2023-04-16T10:53:57.410Z,11.01
2023-04-16T10:56:26.163Z,10.94
2023-04-16T10:58:56.038Z,10.86
2023-04-16T11:01:32.139Z,10.78
2023-04-16T11:04:02.765Z,10.77
2023-04-16T11:06:32.827Z,10.72
2023-04-16T11:09:00.826Z,10.85
2023-04-16T11:11:38.513Z,10.89
2023-04-16T11:14:07.098Z,10.83
2023-04-16T11:16:34.834Z,10.78
2023-04-16T11:19:03.015Z,10.83
2023-04-16T11:21:32.587Z,10.75
2023-04-16T11:24:00.367Z,10.77
2023-04-16T11:26:30.865Z,10.72
2023-04-16T11:29:00.233Z,10.78
2023-04-16T11:31:28.152Z,10.61
2023-04-16T11:33:57.865Z,10.61
2023-04-16T11:36:27.738Z,10.60
2023-04-16T11:39:04.503Z,10.63
2023-04-16T11:41:32.435Z,10.62
2023-04-16T11:44:00.383Z,10.58
2023-04-16T11:46:39.445Z,10.51
2023-04-16T11:49:07.509Z,10.55
2023-04-16T11:51:40.975Z,10.58
2023-04-16T11:54:11.874Z,10.57
2023-04-16T11:56:46.431Z,10.66
2023-04-16T11:59:15.679Z,10.59
2023-04-16T12:01:48.082Z,10.65
2023-04-16T12:04:17.047Z,10.67
2023-04-16T12:07:06.730Z,10.75
2023-04-16T12:09:39.574Z,10.82
2023-04-16T12:12:26.400Z,10.79
2023-04-16T12:14:54.556Z,10.84
2023-04-16T12:17:22.567Z,10.82
2023-04-16T12:19:52.184Z,10.94
2023-04-16T12:22:28.382Z,11.18
2023-04-16T12:25:05.130Z,11.37
2023-04-16T12:27:47.567Z,11.42
2023-04-16T12:30:17.025Z,11.51
2023-04-16T12:32:46.310Z,11.57
2023-04-16T12:35:14.620Z,11.46
2023-04-16T12:37:42.434Z,11.47
2023-04-16T12:40:12.229Z,11.46
2023-04-16T12:42:39.998Z,11.32
2023-04-16T12:45:08.450Z,11.43
2023-04-16T12:47:36.195Z,11.47
2023-04-16T12:50:04.065Z,11.52
2023-04-16T12:52:31.874Z,11.39
2023-04-16T12:54:59.786Z,11.50
2023-04-16T12:57:29.453Z,11.45
2023-04-16T12:59:57.493Z,11.50
2023-04-16T13:02:26.009Z,11.51
2023-04-16T13:04:55.057Z,11.63
2023-04-16T13:07:24.098Z,11.61
2023-04-16T13:09:51.997Z,11.68
2023-04-16T13:12:19.750Z,11.75
2023-04-16T13:14:48.864Z,11.80
2023-04-16T13:17:16.756Z,11.84
2023-04-16T13:19:45.194Z,11.98
2023-04-16T13:22:12.994Z,12.16
2023-04-16T13:24:40.830Z,12.20
2023-04-16T13:27:08.958Z,12.28
2023-04-16T13:29:37.458Z,12.16
2023-04-16T13:32:07.308Z,12.25
2023-04-16T13:34:35.201Z,12.35
2023-04-16T13:37:02.963Z,12.45
2023-04-16T13:39:30.649Z,12.56
2023-04-16T13:41:58.423Z,12.63
2023-04-16T13:44:26.337Z,12.68
2023-04-16T13:46:54.191Z,12.65
2023-04-16T13:49:23.656Z,12.69
2023-04-16T13:51:51.521Z,12.62
2023-04-16T13:54:19.314Z,12.72
2023-04-16T13:56:47.189Z,12.70
2023-04-16T13:59:16.639Z,12.71
2023-04-16T14:01:44.469Z,12.73
2023-04-16T14:04:12.236Z,12.78
2023-04-16T14:06:41.465Z,12.84
2023-04-16T14:09:10.749Z,12.82
2023-04-16T14:11:38.877Z,12.77
2023-04-16T14:14:06.783Z,12.89
2023-04-16T14:16:34.827Z,13.05
2023-04-16T14:19:02.669Z,13.16
2023-04-16T14:21:31.598Z,13.13
2023-04-16T14:24:00.796Z,13.17
2023-04-16T14:26:28.609Z,13.28
2023-04-16T14:28:56.446Z,13.31
2023-04-16T14:31:24.250Z,13.38
2023-04-16T14:33:52.014Z,13.42
2023-04-16T14:36:20.423Z,13.47
2023-04-16T14:38:48.723Z,13.44
2023-04-16T14:41:17.826Z,13.31
2023-04-16T14:43:45.597Z,13.24
2023-04-16T14:46:13.451Z,13.17
2023-04-16T14:48:41.366Z,13.31
2023-04-16T14:51:09.680Z,13.35
2023-04-16T14:53:37.993Z,13.23
2023-04-16T14:56:06.423Z,13.19
2023-04-16T14:58:37.848Z,13.18
2023-04-16T15:01:06.921Z,13.04
2023-04-16T15:03:34.803Z,12.98
2023-04-16T15:06:03.063Z,12.99
2023-04-16T15:08:31.366Z,12.96
2023-04-16T15:10:59.211Z,12.99
2023-04-16T15:13:33.516Z,12.97
2023-04-16T15:16:02.801Z,12.98
2023-04-16T15:18:30.661Z,12.86
2023-04-16T15:20:58.918Z,12.86
2023-04-16T15:23:26.726Z,12.80
2023-04-16T15:25:54.495Z,12.89
2023-04-16T15:28:22.272Z,12.87
2023-04-16T15:30:50.018Z,12.75
2023-04-16T15:33:21.877Z,12.74
2023-04-16T15:35:51.455Z,12.76
2023-04-16T15:38:21.011Z,12.72
2023-04-16T15:40:49.063Z,12.69
2023-04-16T15:43:16.962Z,12.78
2023-04-16T15:45:44.798Z,12.77
2023-04-16T15:48:12.645Z,12.79
2023-04-16T15:50:41.882Z,12.75
2023-04-16T15:53:09.684Z,12.73
2023-04-16T15:55:37.473Z,12.70
2023-04-16T15:58:05.620Z,12.68
2023-04-16T16:00:33.418Z,12.72
2023-04-16T16:03:01.295Z,12.75
2023-04-16T16:05:29.159Z,12.96
2023-04-16T16:07:58.698Z,12.98
2023-04-16T16:10:26.569Z,13.00
2023-04-16T16:12:54.505Z,13.04
2023-04-16T16:15:22.252Z,13.08
2023-04-16T16:17:50.036Z,13.04
2023-04-16T16:20:17.797Z,12.98
2023-04-16T16:22:47.555Z,12.95
2023-04-16T16:25:17.222Z,12.85
2023-04-16T16:27:44.915Z,12.83
2023-04-16T16:30:13.643Z,12.86
2023-04-16T16:32:43.730Z,12.90
2023-04-16T16:35:12.058Z,12.82
2023-04-16T16:37:39.885Z,12.79
2023-04-16T16:40:08.783Z,12.80
2023-04-16T16:42:37.918Z,12.76
2023-04-16T16:45:06.415Z,12.74
2023-04-16T16:47:34.527Z,12.68
2023-04-16T16:50:03.181Z,12.56
2023-04-16T16:52:32.056Z,12.52
2023-04-16T16:54:59.756Z,12.40
2023-04-16T16:57:27.566Z,12.30
2023-04-16T16:59:56.638Z,12.26
2023-04-16T17:02:24.674Z,12.22
2023-04-16T17:04:52.860Z,12.19
2023-04-16T17:07:20.827Z,12.15
2023-04-16T17:09:48.576Z,12.13
2023-04-16T17:12:17.699Z,12.09
2023-04-16T17:14:45.867Z,11.99
2023-04-16T17:17:14.908Z,11.99
2023-04-16T17:19:42.755Z,11.97
2023-04-16T17:22:10.716Z,11.94
2023-04-16T17:24:38.506Z,11.94
2023-04-16T17:27:06.392Z,11.89
2023-04-16T17:29:34.155Z,11.92
2023-04-16T17:32:01.993Z,11.91
2023-04-16T17:34:31.143Z,11.87
2023-04-16T17:36:58.852Z,11.85
2023-04-16T17:39:26.667Z,11.81
2023-04-16T17:41:58.286Z,11.81
2023-04-16T17:44:27.956Z,11.79
2023-04-16T17:46:55.786Z,11.75
2023-04-16T17:49:23.484Z,11.72
2023-04-16T17:51:53.620Z,11.67
2023-04-16T17:54:21.391Z,11.64
2023-04-16T17:56:49.166Z,11.61
2023-04-16T17:59:16.907Z,11.59
2023-04-16T18:01:45.446Z,11.53
2023-04-16T18:04:13.596Z,11.51
2023-04-16T18:06:41.949Z,11.46
2023-04-16T18:09:12.022Z,11.46
2023-04-16T18:11:39.815Z,11.43
2023-04-16T18:14:09.930Z,11.42
2023-04-16T18:16:37.907Z,11.38
2023-04-16T18:19:05.862Z,11.37
2023-04-16T18:21:33.897Z,11.33
2023-04-16T18:24:03.415Z,11.32
2023-04-16T18:26:35.717Z,11.28
2023-04-16T18:29:04.122Z,11.26
2023-04-16T18:31:31.917Z,11.22
2023-04-16T18:33:59.770Z,11.20
2023-04-16T18:36:27.609Z,11.18
2023-04-16T18:41:27.119Z,11.15
2023-04-16T18:43:56.294Z,11.16
2023-04-16T18:46:24.307Z,11.15
2023-04-16T18:48:52.128Z,11.13
2023-04-16T18:51:19.902Z,11.11
2023-04-16T18:53:47.606Z,11.11
2023-04-16T18:56:15.440Z,11.07
2023-04-16T18:58:43.260Z,11.04
2023-04-16T19:01:13.923Z,11.02
2023-04-16T19:03:41.765Z,11.00
2023-04-16T19:06:09.654Z,10.94
2023-04-16T19:08:37.412Z,10.90
2023-04-16T19:11:05.175Z,10.87
2023-04-16T19:13:33.079Z,10.86
2023-04-16T19:16:02.311Z,10.84
2023-04-16T19:18:31.574Z,10.81
2023-04-16T19:21:02.391Z,10.76
2023-04-16T19:23:30.315Z,10.76
2023-04-16T19:26:01.474Z,10.75
2023-04-16T19:28:29.311Z,10.73
2023-04-16T19:30:57.097Z,10.74
2023-04-16T19:33:24.823Z,10.73
2023-04-16T19:35:53.926Z,10.73
2023-04-16T19:38:21.765Z,10.75
2023-04-16T19:40:49.950Z,10.77
2023-04-16T19:43:17.675Z,10.77
2023-04-16T19:45:46.028Z,10.79
2023-04-16T19:48:14.399Z,10.79
2023-04-16T19:50:43.120Z,10.80
2023-04-16T19:53:12.947Z,10.80
2023-04-16T19:55:40.866Z,10.76
2023-04-16T19:58:08.876Z,10.80
2023-04-16T20:00:38.200Z,10.78
2023-04-16T20:03:06.383Z,10.78
2023-04-16T20:05:34.249Z,10.80
2023-04-16T20:08:02.252Z,10.75
2023-04-16T20:10:31.941Z,10.77
2023-04-16T20:12:59.702Z,10.75
2023-04-16T20:15:27.508Z,10.73
2023-04-16T20:17:56.025Z,10.71
2023-04-16T20:20:24.055Z,10.72
2023-04-16T20:22:51.842Z,10.72
2023-04-16T20:25:20.378Z,10.68
2023-04-16T20:27:49.683Z,10.68
2023-04-16T20:30:18.102Z,10.65
2023-04-16T20:32:45.933Z,10.65
2023-04-16T20:35:13.746Z,10.64
2023-04-16T20:37:42.952Z,10.63
2023-04-16T20:40:14.966Z,10.62
2023-04-16T20:42:46.233Z,10.59
2023-04-16T20:45:16.283Z,10.58
2023-04-16T20:47:44.440Z,10.56
2023-04-16T20:50:12.447Z,10.55
2023-04-16T20:52:40.163Z,10.50
2023-04-16T20:55:09.171Z,10.49
2023-04-16T20:57:36.842Z,10.46
2023-04-16T21:00:09.137Z,10.45
2023-04-16T21:02:38.551Z,10.42
2023-04-16T21:05:08.987Z,10.39
2023-04-16T21:07:36.847Z,10.38
2023-04-16T21:10:05.091Z,10.37
2023-04-16T21:12:32.905Z,10.32
2023-04-16T21:15:00.702Z,10.29
2023-04-16T21:17:28.813Z,10.26
2023-04-16T21:19:58.078Z,10.23
2023-04-16T21:22:25.939Z,10.22
2023-04-16T21:24:53.688Z,10.16
2023-04-16T21:27:21.529Z,10.12
2023-04-16T21:29:49.292Z,10.07
2023-04-16T21:32:17.055Z,10.03
2023-04-16T21:34:44.805Z,9.98
2023-04-16T21:37:13.918Z,9.95
2023-04-16T21:39:41.731Z,9.92
2023-04-16T21:42:09.648Z,9.88
2023-04-16T21:44:37.490Z,9.86
2023-04-16T21:47:05.312Z,9.78
2023-04-16T21:49:33.213Z,9.78
2023-04-16T21:52:02.484Z,9.76
2023-04-16T21:54:31.744Z,9.75
2023-04-16T21:56:59.495Z,9.74
2023-04-16T21:59:27.330Z,9.71
2023-04-16T22:01:55.125Z,9.71
2023-04-16T22:04:26.210Z,9.70
2023-04-16T22:06:56.198Z,9.66
2023-04-16T22:09:24.759Z,9.62
2023-04-16T22:11:53.883Z,9.63
2023-04-16T22:14:21.642Z,9.62
2023-04-16T22:16:51.806Z,9.61
2023-04-16T22:19:19.745Z,9.57
2023-04-16T22:21:47.878Z,9.56
2023-04-16T22:24:16.066Z,9.57
2023-04-16T22:26:43.802Z,9.55
2023-04-16T22:29:13.198Z,9.54
2023-04-16T22:31:41.275Z,9.51
2023-04-16T22:34:09.080Z,9.49
2023-04-16T22:36:36.807Z,9.48
2023-04-16T22:39:08.362Z,9.46
2023-04-16T22:41:36.605Z,9.44
2023-04-16T22:44:09.463Z,9.43
2023-04-16T22:46:38.710Z,9.42
2023-04-16T22:49:06.634Z,9.40
2023-04-16T22:51:34.413Z,9.37
2023-04-16T22:54:02.097Z,9.38
2023-04-16T22:56:31.014Z,9.35
2023-04-16T22:58:58.715Z,9.39
2023-04-16T23:01:26.594Z,9.36
2023-04-16T23:03:55.795Z,9.37
2023-04-16T23:06:23.583Z,9.35
2023-04-16T23:08:51.393Z,9.35
2023-04-16T23:11:19.165Z,9.37
2023-04-16T23:13:46.918Z,9.33
2023-04-16T23:16:14.702Z,9.33
2023-04-16T23:18:42.481Z,9.31
2023-04-16T23:21:11.563Z,9.28
2023-04-16T23:23:39.330Z,9.28
2023-04-16T23:26:07.048Z,9.26
2023-04-16T23:28:34.793Z,9.25
2023-04-16T23:31:04.174Z,9.20
2023-04-16T23:33:33.263Z,9.21
2023-04-16T23:36:01.085Z,9.21
2023-04-16T23:38:30.716Z,9.22
2023-04-16T23:40:58.403Z,9.21
2023-04-16T23:43:26.296Z,9.23
2023-04-16T23:45:54.039Z,9.23
2023-04-16T23:48:21.759Z,9.23
2023-04-16T23:50:49.562Z,9.24
2023-04-16T23:53:17.324Z,9.23
2023-04-16T23:55:46.432Z,9.23
2023-04-16T23:58:14.180Z,9.22
